Time;durP1;ratioP1;P1;durP2;ratioP2;P2;SDS_P1;SDS_P2;PMS_P1;PMS_P2;Temp;Humidity;BMP_temperature;BMP_pressure;BME280_temperature;BME280_humidity;BME280_pressure;Samples;Min_cycle;Max_cycle;Signal;HPM_P1;HPM_P2
2024/01/01 00:01:08;;;;;;;13.52;5.72;;;;;;;9.53;100.00;99733.34;5292631;28;20050;-83
2024/01/01 00:03:43;;;;;;;22.23;12.38;;;;;;;9.49;100.00;99756.34;5295267;28;20020;-82
2024/01/01 00:06:15;;;;;;;9.70;3.35;;;;;;;9.31;100.00;99763.38;5291832;28;20047;-83
2024/01/01 00:08:47;;;;;;;8.75;3.40;;;;;;;9.27;100.00;99769.88;5292840;28;20035;-83
2024/01/01 00:11:19;;;;;;;8.52;3.70;;;;;;;9.24;100.00;99768.38;5290534;28;20675;-82
2024/01/01 00:13:51;;;;;;;8.15;2.83;;;;;;;9.24;100.00;99752.72;5273905;28;20492;-83
2024/01/01 00:16:22;;;;;;;8.70;3.03;;;;;;;9.14;100.00;99782.47;5284880;28;20028;-82
2024/01/01 00:18:54;;;;;;;7.30;2.42;;;;;;;8.99;100.00;99775.13;5273679;28;20048;-82
2024/01/01 00:21:27;;;;;;;5.75;2.13;;;;;;;8.90;100.00;99789.06;5275596;28;20050;-82
2024/01/01 00:23:59;;;;;;;7.18;1.88;;;;;;;8.90;100.00;99769.94;5290367;28;20031;-82
2024/01/01 00:26:31;;;;;;;5.55;2.10;;;;;;;8.69;100.00;99757.97;5292791;28;20034;-82
2024/01/01 00:29:03;;;;;;;5.32;1.88;;;;;;;8.70;100.00;99764.00;5293825;28;20158;-82
2024/01/01 00:31:37;;;;;;;4.03;1.87;;;;;;;8.64;100.00;99773.25;5290974;28;20489;-82
2024/01/01 00:34:09;;;;;;;7.70;3.10;;;;;;;8.55;100.00;99770.66;5284472;28;20036;-82
2024/01/01 00:36:41;;;;;;;8.43;3.03;;;;;;;8.60;100.00;99773.66;5291917;28;20115;-82
2024/01/01 00:39:13;;;;;;;7.30;2.90;;;;;;;8.51;100.00;99770.94;5291797;28;20098;-83
2024/01/01 00:41:46;;;;;;;5.60;2.72;;;;;;;8.56;100.00;99775.75;5291828;28;20259;-84
2024/01/01 00:44:17;;;;;;;6.63;2.45;;;;;;;8.38;100.00;99760.00;5287842;28;20095;-82
2024/01/01 00:46:49;;;;;;;6.47;2.22;;;;;;;8.46;100.00;99756.69;5293265;28;20035;-82
2024/01/01 00:49:21;;;;;;;6.22;2.25;;;;;;;8.30;100.00;99762.47;5283728;28;20098;-82
2024/01/01 00:51:53;;;;;;;4.88;2.38;;;;;;;8.29;100.00;99776.47;5290210;28;20127;-82
2024/01/01 00:54:28;;;;;;;4.47;2.08;;;;;;;8.23;100.00;99762.22;5291242;28;20088;-82
2024/01/01 00:57:00;;;;;;;5.45;2.33;;;;;;;8.23;100.00;99770.06;5288469;28;20048;-82
2024/01/01 00:59:31;;;;;;;4.63;2.50;;;;;;;8.17;100.00;99762.78;5289467;28;20028;-82
2024/01/01 01:02:03;;;;;;;7.45;2.75;;;;;;;8.13;100.00;99771.84;5292002;28;20135;-82
2024/01/01 01:04:35;;;;;;;22.83;15.80;;;;;;;8.13;100.00;99766.63;5288799;28;20513;-82
2024/01/01 01:07:07;;;;;;;6.68;3.05;;;;;;;8.08;100.00;99749.78;5291944;28;20028;-81
2024/01/01 01:09:39;;;;;;;5.68;3.00;;;;;;;8.03;100.00;99777.09;5291120;28;20033;-82
2024/01/01 01:12:11;;;;;;;7.63;2.85;;;;;;;8.08;100.00;99775.84;5291293;28;20027;-82
2024/01/01 01:14:43;;;;;;;6.85;2.42;;;;;;;8.03;100.00;99771.88;5291690;28;20504;-82
2024/01/01 01:17:15;;;;;;;6.47;2.53;;;;;;;8.04;100.00;99772.69;5288409;28;20119;-81
2024/01/01 01:19:47;;;;;;;6.95;2.70;;;;;;;8.01;100.00;99776.41;5291623;28;20020;-82
2024/01/01 01:22:19;;;;;;;6.68;3.10;;;;;;;8.10;100.00;99769.50;5289481;28;20037;-82
2024/01/01 01:24:50;;;;;;;6.25;2.20;;;;;;;8.14;100.00;99780.50;5291549;28;20038;-82
2024/01/01 01:27:22;;;;;;;3.38;1.55;;;;;;;8.23;100.00;99785.72;5290891;28;20023;-82
2024/01/01 01:29:54;;;;;;;7.13;2.15;;;;;;;8.16;100.00;99789.84;5292061;28;20036;-83
2024/01/01 01:32:26;;;;;;;6.90;1.85;;;;;;;8.20;100.00;99778.16;5291628;28;20031;-82
2024/01/01 01:34:58;;;;;;;6.50;2.03;;;;;;;8.27;100.00;99786.25;5290708;28;20327;-82
2024/01/01 01:37:30;;;;;;;6.50;2.22;;;;;;;8.26;100.00;99779.41;5287263;28;20042;-82
2024/01/01 01:40:03;;;;;;;5.82;2.72;;;;;;;8.27;100.00;99779.25;5287440;28;20024;-82
2024/01/01 01:42:35;;;;;;;3.92;1.90;;;;;;;8.24;100.00;99789.94;5270022;28;20165;-82
2024/01/01 01:45:07;;;;;;;6.83;2.40;;;;;;;8.21;100.00;99790.22;5284130;28;20036;-82
2024/01/01 01:47:40;;;;;;;7.38;2.20;;;;;;;8.17;100.00;99778.44;5271980;28;20286;-82
2024/01/01 01:50:14;;;;;;;5.43;2.30;;;;;;;8.21;100.00;99776.38;5286457;28;20036;-82
2024/01/01 01:52:47;;;;;;;6.40;2.45;;;;;;;8.15;100.00;99782.16;5286770;28;20027;-83
2024/01/01 01:55:22;;;;;;;8.25;2.50;;;;;;;8.10;100.00;99777.34;5284024;28;20052;-81
2024/01/01 01:57:54;;;;;;;9.88;3.58;;;;;;;8.14;100.00;99777.88;5291739;28;20501;-81
2024/01/01 02:00:26;;;;;;;7.18;1.95;;;;;;;8.09;100.00;99780.09;5291412;28;20019;-81
2024/01/01 02:02:58;;;;;;;8.75;2.45;;;;;;;8.08;100.00;99778.47;5287156;28;20509;-81
2024/01/01 02:05:30;;;;;;;8.70;2.45;;;;;;;8.11;100.00;99784.22;5292316;28;20371;-81
2024/01/01 02:08:04;;;;;;;8.27;2.55;;;;;;;8.20;100.00;99785.16;5294581;28;20035;-81
2024/01/01 02:10:36;;;;;;;7.05;2.08;;;;;;;8.25;100.00;99783.75;5280259;28;20032;-81
2024/01/01 02:13:24;;;;;;;8.98;2.83;;;;;;;8.47;100.00;99785.25;5276873;28;20025;-81
2024/01/01 02:15:56;;;;;;;8.75;2.40;;;;;;;8.30;100.00;99783.38;5280024;28;20055;-80
2024/01/01 02:18:28;;;;;;;7.18;2.40;;;;;;;8.29;100.00;99779.91;5278542;28;20028;-81
2024/01/01 02:21:00;;;;;;;9.65;2.67;;;;;;;8.33;100.00;99774.41;5276958;28;20028;-81
2024/01/01 02:23:32;;;;;;;7.93;2.53;;;;;;;8.36;100.00;99789.78;5279679;28;20037;-81
2024/01/01 02:26:04;;;;;;;11.07;2.45;;;;;;;8.38;100.00;99790.50;5280846;28;20035;-81
2024/01/01 02:28:36;;;;;;;7.75;2.25;;;;;;;8.34;100.00;99791.72;5280097;28;20059;-81
2024/01/01 02:31:08;;;;;;;7.82;1.95;;;;;;;8.37;100.00;99789.69;5278999;28;20513;-81
2024/01/01 02:33:40;;;;;;;11.25;2.83;;;;;;;8.34;100.00;99800.38;5272058;28;20044;-81
2024/01/01 02:36:12;;;;;;;7.60;2.33;;;;;;;8.29;100.00;99807.78;5272019;28;20288;-81
2024/01/01 02:38:43;;;;;;;14.60;3.05;;;;;;;8.39;100.00;99811.25;5274260;28;20047;-81
2024/01/01 02:41:15;;;;;;;8.43;2.42;;;;;;;8.28;100.00;99812.19;5285418;28;20036;-81
2024/01/01 02:43:47;;;;;;;9.50;2.53;;;;;;;8.32;100.00;99811.91;5285571;28;20504;-81
2024/01/01 02:46:19;;;;;;;12.20;2.88;;;;;;;8.28;100.00;99821.81;5285245;28;20033;-80
2024/01/01 02:48:51;;;;;;;11.32;2.83;;;;;;;8.27;100.00;99815.78;5285265;28;20055;-80
2024/01/01 02:51:23;;;;;;;9.63;2.30;;;;;;;8.30;100.00;99819.91;5285126;28;20035;-81
2024/01/01 02:53:56;;;;;;;9.52;3.13;;;;;;;8.32;100.00;99817.94;5287288;28;20036;-81
2024/01/01 02:56:28;;;;;;;9.60;2.58;;;;;;;8.38;100.00;99825.25;5286650;28;20044;-81
2024/01/01 02:59:00;;;;;;;11.98;2.63;;;;;;;8.34;100.00;99826.47;5286141;28;20767;-81
2024/01/01 03:01:31;;;;;;;11.57;2.25;;;;;;;8.25;100.00;99809.03;5284575;28;20034;-81
2024/01/01 03:04:04;;;;;;;10.35;2.92;;;;;;;8.31;100.00;99818.91;5288839;28;20032;-81
2024/01/01 03:06:35;;;;;;;13.98;2.40;;;;;;;8.27;100.00;99815.78;5291207;28;20039;-81
2024/01/01 03:09:08;;;;;;;10.45;2.70;;;;;;;8.29;100.00;99823.44;5292508;28;20062;-81
2024/01/01 03:11:40;;;;;;;11.13;2.63;;;;;;;8.20;100.00;99811.25;5287554;28;20036;-81
2024/01/01 03:14:12;;;;;;;9.55;2.33;;;;;;;8.18;100.00;99828.81;5285430;28;20039;-81
2024/01/01 03:16:43;;;;;;;11.70;2.72;;;;;;;8.20;100.00;99835.56;5281740;28;20033;-81
2024/01/01 03:19:15;;;;;;;9.27;2.58;;;;;;;8.13;100.00;99834.47;5285037;28;20035;-81
2024/01/01 03:21:47;;;;;;;9.75;2.42;;;;;;;8.10;100.00;99813.88;5285489;28;20446;-81
2024/01/01 03:24:19;;;;;;;8.95;2.42;;;;;;;8.12;100.00;99830.22;5282985;28;20425;-81
2024/01/01 03:26:51;;;;;;;9.35;2.55;;;;;;;8.00;100.00;99820.91;5283674;28;20040;-81
2024/01/01 03:29:23;;;;;;;9.18;2.80;;;;;;;8.10;100.00;99836.53;5282884;28;20060;-81
2024/01/01 03:31:55;;;;;;;11.15;2.78;;;;;;;8.14;100.00;99843.94;5284510;28;20044;-81
2024/01/01 03:34:27;;;;;;;11.15;2.63;;;;;;;8.10;100.00;99845.16;5283607;28;20028;-81
2024/01/01 03:36:59;;;;;;;12.48;2.67;;;;;;;8.03;100.00;99842.31;5282601;28;20046;-81
2024/01/01 03:39:31;;;;;;;10.50;2.72;;;;;;;8.14;100.00;99837.88;5285322;28;20032;-81
2024/01/01 03:42:04;;;;;;;13.55;2.42;;;;;;;8.15;100.00;99848.19;5281225;28;20039;-81
2024/01/01 03:44:35;;;;;;;12.75;3.17;;;;;;;8.08;100.00;99846.28;5283263;28;20047;-81
2024/01/01 03:47:08;;;;;;;9.80;3.28;;;;;;;8.07;100.00;99848.06;5282120;28;20035;-81
2024/01/01 03:49:40;;;;;;;12.13;2.83;;;;;;;8.07;100.00;99842.88;5281789;28;20038;-81
2024/01/01 03:52:13;;;;;;;7.85;2.35;;;;;;;8.03;100.00;99839.69;5282666;28;21116;-81
2024/01/01 03:54:45;;;;;;;12.05;2.47;;;;;;;8.09;100.00;99845.31;5280908;28;20537;-80
2024/01/01 03:57:17;;;;;;;13.80;2.78;;;;;;;8.01;100.00;99840.78;5283417;28;20042;-81
2024/01/01 03:59:49;;;;;;;13.00;2.90;;;;;;;8.03;100.00;99851.91;5280976;28;20029;-81
2024/01/01 04:02:22;;;;;;;17.45;3.42;;;;;;;8.07;100.00;99835.03;5283562;28;20032;-81
2024/01/01 04:04:54;;;;;;;9.50;2.05;;;;;;;8.04;100.00;99833.50;5284706;28;20382;-81
2024/01/01 04:07:26;;;;;;;7.72;2.47;;;;;;;8.15;100.00;99856.03;5279171;28;20042;-80
2024/01/01 04:09:58;;;;;;;8.95;2.33;;;;;;;8.10;100.00;99860.00;5282411;28;20073;-80
2024/01/01 04:12:30;;;;;;;11.23;3.22;;;;;;;8.15;100.00;99863.84;5282748;28;20036;-81
2024/01/01 04:15:03;;;;;;;9.40;2.63;;;;;;;8.07;100.00;99849.84;5284660;28;20032;-81
2024/01/01 04:17:35;;;;;;;9.48;2.60;;;;;;;8.09;100.00;99838.31;5283065;28;20043;-81
2024/01/01 04:20:10;;;;;;;8.75;2.33;;;;;;;8.00;100.00;99836.53;5284166;28;20374;-81
2024/01/01 04:22:42;;;;;;;7.80;1.77;;;;;;;8.03;100.00;99847.53;5282466;28;20493;-81
2024/01/01 04:25:14;;;;;;;9.60;2.20;;;;;;;8.09;100.00;99858.38;5282558;28;20344;-81
2024/01/01 04:27:46;;;;;;;10.90;2.30;;;;;;;8.09;100.00;99855.75;5277960;28;20040;-81
2024/01/01 04:30:18;;;;;;;8.23;2.50;;;;;;;8.08;100.00;99846.28;5281860;28;20509;-80
2024/01/01 04:32:50;;;;;;;9.43;2.28;;;;;;;8.14;100.00;99866.59;5281403;28;20027;-80
2024/01/01 04:35:22;;;;;;;8.38;2.22;;;;;;;8.14;100.00;99856.16;5281499;28;20040;-80
2024/01/01 04:37:54;;;;;;;10.80;2.53;;;;;;;8.10;100.00;99855.59;5282776;28;20486;-80
2024/01/01 04:40:26;;;;;;;7.95;2.28;;;;;;;8.20;100.00;99861.66;5280682;28;20388;-81
2024/01/01 04:42:59;;;;;;;8.65;2.35;;;;;;;8.25;100.00;99848.19;5279809;28;20032;-80
2024/01/01 04:45:35;;;;;;;9.75;2.25;;;;;;;8.28;100.00;99860.94;5282154;28;20043;-80
2024/01/01 04:48:08;;;;;;;11.05;2.33;;;;;;;8.21;100.00;99862.47;5280192;28;20028;-80
2024/01/01 04:50:40;;;;;;;10.43;2.17;;;;;;;8.31;100.00;99860.69;5260599;28;20386;-80
2024/01/01 04:53:12;;;;;;;6.60;2.00;;;;;;;8.21;100.00;99871.09;5279136;28;20042;-81
2024/01/01 04:55:43;;;;;;;7.72;2.00;;;;;;;8.24;100.00;99875.25;5282678;28;20289;-81
2024/01/01 04:58:15;;;;;;;8.68;2.20;;;;;;;8.22;100.00;99879.75;5278541;28;20028;-81
2024/01/01 05:00:47;;;;;;;9.38;2.13;;;;;;;8.18;100.00;99870.56;5281283;28;20030;-81
2024/01/01 05:03:19;;;;;;;13.73;2.08;;;;;;;8.15;100.00;99870.88;5280778;28;20462;-81
2024/01/01 05:05:51;;;;;;;8.57;2.00;;;;;;;8.19;100.00;99867.84;5280389;28;20074;-81
2024/01/01 05:08:23;;;;;;;6.88;1.90;;;;;;;8.22;100.00;99874.53;5279369;28;20040;-81
2024/01/01 05:10:55;;;;;;;7.38;2.00;;;;;;;8.23;100.00;99886.66;5281321;28;20036;-81
2024/01/01 05:13:26;;;;;;;10.93;2.67;;;;;;;8.21;100.00;99894.59;5279644;28;20069;-80
2024/01/01 05:15:58;;;;;;;7.88;1.77;;;;;;;8.18;100.00;99881.00;5280827;28;21133;-81
2024/01/01 05:18:30;;;;;;;11.27;2.38;;;;;;;8.25;100.00;99890.75;5278172;28;20044;-80
2024/01/01 05:21:03;;;;;;;10.00;2.28;;;;;;;8.21;100.00;99880.72;5270580;28;20071;-80
2024/01/01 05:23:35;;;;;;;8.18;2.45;;;;;;;8.23;100.00;99890.06;5280061;28;20035;-80
2024/01/01 05:26:07;;;;;;;8.98;2.35;;;;;;;8.23;100.00;99889.25;5280164;28;20450;-81
2024/01/01 05:28:39;;;;;;;7.07;1.88;;;;;;;8.21;100.00;99901.59;5279367;28;20036;-80
2024/01/01 05:31:10;;;;;;;8.27;2.28;;;;;;;8.23;100.00;99910.13;5280889;28;20038;-81
2024/01/01 05:33:42;;;;;;;9.20;2.15;;;;;;;8.28;100.00;99911.34;5280423;28;20032;-80
2024/01/01 05:36:14;;;;;;;8.00;2.00;;;;;;;8.28;100.00;99906.13;5280812;28;20379;-80
2024/01/01 05:38:46;;;;;;;7.65;2.10;;;;;;;8.25;100.00;99909.00;5279593;28;20054;-80
2024/01/01 05:41:18;;;;;;;8.82;2.20;;;;;;;8.29;100.00;99925.22;5279882;28;20034;-80
2024/01/01 05:43:50;;;;;;;9.15;2.67;;;;;;;8.26;100.00;99918.50;5282362;28;20032;-80
2024/01/01 05:46:22;;;;;;;6.68;1.58;;;;;;;8.22;100.00;99924.13;5281659;28;20040;-80
2024/01/01 05:48:54;;;;;;;9.25;1.98;;;;;;;8.25;100.00;99926.47;5277147;28;20417;-80
2024/01/01 05:51:26;;;;;;;8.77;2.08;;;;;;;8.18;100.00;99928.81;5280582;28;20298;-80
2024/01/01 05:53:57;;;;;;;10.55;2.15;;;;;;;8.15;100.00;99943.91;5281814;28;20043;-80
2024/01/01 05:56:29;;;;;;;7.60;1.95;;;;;;;8.18;100.00;99943.63;5279709;28;20048;-80
2024/01/01 05:59:01;;;;;;;9.32;2.15;;;;;;;8.12;100.00;99944.19;5279576;28;20031;-80
2024/01/01 06:01:33;;;;;;;8.85;2.35;;;;;;;8.16;100.00;99935.13;5283780;28;20028;-81
2024/01/01 06:04:05;;;;;;;10.25;2.78;;;;;;;8.14;100.00;99942.25;5278293;28;20046;-80
2024/01/01 06:06:37;;;;;;;9.05;2.33;;;;;;;8.08;100.00;99935.81;5273942;28;20029;-81
2024/01/01 06:09:09;;;;;;;9.70;2.08;;;;;;;8.05;100.00;99943.88;5275324;28;20039;-80
2024/01/01 06:11:41;;;;;;;9.73;2.33;;;;;;;8.13;100.00;99958.88;5287506;28;20039;-81
2024/01/01 06:14:14;;;;;;;8.63;2.03;;;;;;;8.09;100.00;99958.31;5290518;28;20031;-81
2024/01/01 06:16:46;;;;;;;;;;;;;;;8.62;100.00;99957.09;5288145;28;20035;-80
2024/01/01 06:19:18;;;;;;;7.40;2.05;;;;;;;8.17;100.00;99955.03;5284902;28;20034;-80
2024/01/01 06:21:50;;;;;;;8.40;2.00;;;;;;;8.15;100.00;99962.19;5286199;28;20505;-80
2024/01/01 06:24:22;;;;;;;11.73;2.75;;;;;;;8.13;100.00;99951.84;5287576;28;20043;-80
2024/01/01 06:26:53;;;;;;;9.73;2.25;;;;;;;8.04;100.00;99966.56;5286659;28;20043;-80
2024/01/01 06:29:27;;;;;;;8.30;1.80;;;;;;;7.99;100.00;99962.69;5282974;28;20044;-81
2024/01/01 06:31:58;;;;;;;8.38;2.38;;;;;;;7.97;100.00;99967.22;5273632;28;20047;-81
2024/01/01 06:34:30;;;;;;;6.93;2.03;;;;;;;7.99;100.00;99973.97;5284370;28;20393;-80
2024/01/01 06:37:02;;;;;;;8.25;2.00;;;;;;;7.93;100.00;99984.09;5280408;28;20215;-81
2024/01/01 06:39:34;;;;;;;7.15;2.30;;;;;;;7.93;100.00;99992.75;5286653;28;20108;-81
2024/01/01 06:42:06;;;;;;;10.65;2.30;;;;;;;7.93;100.00;99994.53;5289397;28;20039;-80
2024/01/01 06:44:38;;;;;;;9.48;2.28;;;;;;;7.96;100.00;100005.53;5287832;28;20036;-81
2024/01/01 06:47:10;;;;;;;6.63;2.25;;;;;;;8.00;100.00;100006.09;5289356;28;20032;-81
2024/01/01 06:49:42;;;;;;;10.48;2.45;;;;;;;7.97;100.00;99998.53;5292373;28;20039;-81
2024/01/01 06:52:14;;;;;;;8.05;2.22;;;;;;;8.03;100.00;100004.03;5293173;28;20040;-81
2024/01/01 06:54:46;;;;;;;8.23;1.98;;;;;;;8.11;100.00;100007.75;5293832;28;20044;-81
2024/01/01 06:57:18;;;;;;;9.02;2.40;;;;;;;8.16;100.00;100019.44;5296847;28;20044;-80
2024/01/01 06:59:50;;;;;;;8.50;1.95;;;;;;;8.15;100.00;100022.19;5293882;28;20389;-80
2024/01/01 07:02:22;;;;;;;8.98;2.47;;;;;;;8.15;100.00;100027.41;5293737;28;20575;-81
2024/01/01 07:04:54;;;;;;;11.88;2.10;;;;;;;8.20;100.00;100038.25;5291882;28;20075;-81
2024/01/01 07:07:26;;;;;;;8.40;2.00;;;;;;;8.20;100.00;100033.84;5297334;28;20035;-81
2024/01/01 07:09:58;;;;;;;7.10;2.08;;;;;;;8.15;100.00;100043.88;5293102;28;20029;-81
2024/01/01 07:12:30;;;;;;;6.28;2.10;;;;;;;8.12;100.00;100036.31;5293376;28;20474;-81
2024/01/01 07:15:02;;;;;;;11.05;2.47;;;;;;;8.09;100.00;100047.00;5294984;28;20039;-81
2024/01/01 07:17:34;;;;;;;9.70;2.47;;;;;;;8.12;100.00;100056.34;5294307;28;20043;-81
2024/01/01 07:20:06;;;;;;;8.23;2.47;;;;;;;8.09;100.00;100062.66;5291645;28;20027;-81
2024/01/01 07:22:38;;;;;;;9.25;2.30;;;;;;;8.10;100.00;100055.66;5289595;28;20036;-80
2024/01/01 07:25:10;;;;;;;9.70;2.25;;;;;;;8.08;100.00;100057.59;5289402;28;20031;-81
2024/01/01 07:27:42;;;;;;;7.53;1.92;;;;;;;8.07;100.00;100063.75;5290636;28;20123;-81
2024/01/01 07:30:14;;;;;;;9.85;2.50;;;;;;;8.00;100.00;100076.50;5289634;28;20032;-81
2024/01/01 07:32:46;;;;;;;9.52;2.17;;;;;;;7.95;100.00;100071.66;5291689;28;20032;-81
2024/01/01 07:35:18;;;;;;;8.45;2.00;;;;;;;8.05;100.00;100069.09;5278487;28;20036;-81
2024/01/01 07:37:50;;;;;;;7.50;2.17;;;;;;;7.93;100.00;100060.56;5290676;28;20053;-80
2024/01/01 07:40:22;;;;;;;8.05;2.33;;;;;;;8.02;100.00;100071.97;5291398;28;20034;-81
2024/01/01 07:42:55;;;;;;;9.60;2.50;;;;;;;7.95;100.00;100070.84;5289089;28;20901;-81
2024/01/01 07:45:26;;;;;;;8.57;1.95;;;;;;;8.00;100.00;100071.28;5285218;28;20040;-81
2024/01/01 07:47:58;;;;;;;8.00;2.05;;;;;;;7.93;100.00;100076.22;5282926;28;20047;-81
2024/01/01 07:50:30;;;;;;;8.32;2.28;;;;;;;7.99;100.00;100080.91;5282290;28;20394;-80
2024/01/01 07:53:02;;;;;;;8.07;1.88;;;;;;;7.92;100.00;100074.56;5282768;28;20030;-81
2024/01/01 07:55:36;;;;;;;8.05;2.20;;;;;;;7.90;100.00;100078.25;5284097;28;20060;-80
2024/01/01 07:58:08;;;;;;;8.85;2.45;;;;;;;7.89;100.00;100089.66;5279525;28;20036;-81
2024/01/01 08:00:40;;;;;;;11.05;2.25;;;;;;;7.88;100.00;100091.44;5284123;28;20034;-81
2024/01/01 08:03:13;;;;;;;8.32;1.88;;;;;;;7.86;100.00;100105.56;5285944;28;20115;-80
2024/01/01 08:05:45;;;;;;;10.43;2.13;;;;;;;7.90;100.00;100112.16;5285174;28;20032;-81
2024/01/01 08:08:20;;;;;;;10.88;2.40;;;;;;;7.98;100.00;100118.38;5283165;28;20402;-80
2024/01/01 08:10:53;;;;;;;11.93;2.00;;;;;;;7.94;100.00;100121.38;5282484;28;20033;-80
2024/01/01 08:13:25;;;;;;;8.07;2.00;;;;;;;8.02;100.00;100118.94;5282439;28;20029;-80
2024/01/01 08:15:57;;;;;;;9.10;2.13;;;;;;;8.02;100.00;100124.16;5283607;28;20306;-80
2024/01/01 08:18:29;;;;;;;11.73;2.58;;;;;;;8.04;100.00;100133.50;5286180;28;20042;-79
2024/01/01 08:21:01;;;;;;;9.15;2.13;;;;;;;8.11;100.00;100131.19;5285342;28;20023;-81
2024/01/01 08:23:32;;;;;;;6.95;1.63;;;;;;;8.10;100.00;100149.56;5281279;28;20028;-81
2024/01/01 08:26:05;;;;;;;8.70;2.25;;;;;;;8.07;100.00;100147.22;5288004;28;20512;-81
2024/01/01 08:28:37;;;;;;;9.48;2.15;;;;;;;8.08;100.00;100141.88;5288516;28;20052;-81
2024/01/01 08:31:09;;;;;;;7.63;2.10;;;;;;;8.13;100.00;100149.31;5279769;28;20040;-81
2024/01/01 08:33:41;;;;;;;11.35;3.15;;;;;;;8.11;100.00;100156.47;5288653;28;20375;-81
2024/01/01 08:36:13;;;;;;;6.35;1.80;;;;;;;8.13;100.00;100151.94;5287543;28;20054;-81
2024/01/01 08:38:45;;;;;;;8.32;2.53;;;;;;;8.12;100.00;100171.16;5291194;28;20074;-81
2024/01/01 08:41:17;;;;;;;8.68;2.50;;;;;;;8.21;100.00;100172.97;5285272;28;20054;-81
2024/01/01 08:43:56;;;;;;;7.03;2.33;;;;;;;8.25;100.00;100175.19;5291443;28;20032;-81
2024/01/01 08:46:28;;;;;;;12.30;2.67;;;;;;;8.29;100.00;100162.69;5288803;28;20059;-81
2024/01/01 08:49:00;;;;;;;9.18;2.67;;;;;;;8.25;100.00;100161.31;5289101;28;20033;-81
2024/01/01 08:51:33;;;;;;;7.95;1.92;;;;;;;8.28;100.00;100185.34;5286310;28;20028;-81
2024/01/01 08:54:07;;;;;;;9.75;2.22;;;;;;;8.36;100.00;100202.16;5287328;28;20109;-81
2024/01/01 08:56:41;;;;;;;8.18;2.05;;;;;;;8.31;100.00;100186.88;5286643;28;20044;-81
2024/01/01 08:59:13;;;;;;;11.15;2.88;;;;;;;8.28;100.00;100198.41;5287695;28;20036;-81
2024/01/01 09:01:45;;;;;;;10.15;2.10;;;;;;;8.21;100.00;100180.78;5291057;28;20032;-81
2024/01/01 09:04:20;;;;;;;11.03;2.10;;;;;;;8.28;100.00;100192.38;5291899;28;20043;-81
2024/01/01 09:06:52;;;;;;;7.68;2.22;;;;;;;8.25;100.00;100187.41;5289603;28;20566;-81
2024/01/01 09:09:24;;;;;;;9.27;2.33;;;;;;;8.31;100.00;100201.72;5286657;28;20028;-81
2024/01/01 09:11:56;;;;;;;10.20;1.90;;;;;;;8.27;100.00;100211.59;5289325;28;20055;-80
2024/01/01 09:14:28;;;;;;;12.70;2.58;;;;;;;8.32;100.00;100198.97;5284802;28;20043;-80
2024/01/01 09:17:00;;;;;;;11.07;2.30;;;;;;;8.37;100.00;100212.50;5283758;28;20042;-79
2024/01/01 09:19:32;;;;;;;10.73;1.98;;;;;;;8.41;100.00;100232.16;5281106;28;20486;-80
2024/01/01 09:22:04;;;;;;;8.30;2.25;;;;;;;8.36;100.00;100221.25;5282288;28;20036;-80
2024/01/01 09:24:36;;;;;;;9.57;2.53;;;;;;;8.36;100.00;100234.28;5281486;28;20039;-80
2024/01/01 09:27:08;;;;;;;6.70;2.42;;;;;;;8.21;100.00;100228.59;5282820;28;20602;-80
2024/01/01 09:29:40;;;;;;;8.35;2.45;;;;;;;8.30;100.00;100242.66;5283613;28;20028;-80
2024/01/01 09:32:12;;;;;;;9.75;2.67;;;;;;;8.24;100.00;100227.50;5269849;28;20048;-80
2024/01/01 09:34:43;;;;;;;6.43;2.00;;;;;;;8.26;100.00;100231.66;5286152;28;20032;-79
2024/01/01 09:37:15;;;;;;;7.07;1.92;;;;;;;8.35;100.00;100245.69;5285083;28;20035;-80
2024/01/01 09:39:47;;;;;;;10.90;2.50;;;;;;;8.37;100.00;100248.16;5283668;28;20038;-80
2024/01/01 09:42:19;;;;;;;7.50;1.77;;;;;;;8.32;100.00;100232.91;5282148;28;20028;-81
2024/01/01 09:44:53;;;;;;;10.90;2.60;;;;;;;8.36;100.00;100247.34;5283163;28;20030;-80
2024/01/01 09:47:24;;;;;;;;;;;;;;;8.95;100.00;100254.47;5280614;28;20060;-82
2024/01/01 09:49:56;;;;;;;11.32;2.90;;;;;;;8.52;100.00;100267.75;5279032;28;19920;-82
2024/01/01 09:52:28;;;;;;;7.72;2.00;;;;;;;8.44;100.00;100255.38;5281433;28;20059;-82
2024/01/01 09:55:00;;;;;;;7.70;2.17;;;;;;;8.49;100.00;100273.28;5278755;28;20036;-82
2024/01/01 09:57:32;;;;;;;11.50;2.55;;;;;;;8.49;100.00;100278.50;5280991;28;20043;-82
2024/01/01 10:00:05;;;;;;;10.95;2.28;;;;;;;8.48;100.00;100282.88;5268004;28;20055;-82
2024/01/01 10:02:37;;;;;;;10.18;1.98;;;;;;;8.58;100.00;100285.53;5279326;28;20029;-82
2024/01/01 10:05:13;;;;;;;7.90;2.53;;;;;;;8.60;100.00;100282.78;5281237;28;20044;-82
2024/01/01 10:07:47;;;;;;;8.50;2.22;;;;;;;8.53;100.00;100285.09;5278441;28;20044;-81
2024/01/01 10:10:29;;;;;;;10.10;2.33;;;;;;;8.62;100.00;100273.03;5278908;28;20028;-82
2024/01/01 10:13:11;;;;;;;12.38;2.75;;;;;;;8.62;100.00;100286.91;5279522;28;20043;-82
2024/01/01 10:15:45;;;;;;;10.93;3.05;;;;;;;8.49;100.00;100296.78;5280929;28;20041;-82
2024/01/01 10:18:17;;;;;;;8.55;2.05;;;;;;;8.40;100.00;100292.31;5280081;28;20481;-82
2024/01/01 10:20:50;;;;;;;7.55;1.90;;;;;;;8.42;100.00;100296.47;5280651;28;20402;-82
2024/01/01 10:23:26;;;;;;;8.60;2.20;;;;;;;8.57;100.00;100302.16;5276801;28;20036;-82
2024/01/01 10:26:10;;;;;;;13.23;3.53;;;;;;;8.58;100.00;100297.75;5280046;28;20040;-82
2024/01/01 10:28:43;;;;;;;6.50;2.30;;;;;;;8.61;100.00;100302.72;5275290;28;20040;-82
2024/01/01 10:31:15;;;;;;;10.32;2.35;;;;;;;8.63;100.00;100299.00;5275933;28;20388;-82
2024/01/01 10:33:48;;;;;;;7.60;2.45;;;;;;;8.77;100.00;100314.34;5279660;28;20036;-82
2024/01/01 10:36:22;;;;;;;10.82;3.00;;;;;;;8.76;100.00;100296.19;5279115;28;20039;-82
2024/01/01 10:38:55;;;;;;;;;;;;;;;9.28;100.00;100317.81;5277424;28;20382;-82
2024/01/01 10:41:28;;;;;;;10.88;2.72;;;;;;;8.92;100.00;100311.38;5257432;28;19924;-82
2024/01/01 10:44:02;;;;;;;11.45;2.67;;;;;;;8.81;100.00;100311.47;5277081;28;20047;-82
2024/01/01 10:46:39;;;;;;;10.85;3.60;;;;;;;8.96;100.00;100318.81;5276579;28;20024;-82
2024/01/01 10:49:15;;;;;;;8.35;2.45;;;;;;;8.95;100.00;100332.00;5277292;28;20047;-82
2024/01/01 10:52:14;;;;;;;12.77;3.10;;;;;;;8.96;100.00;100329.25;5277130;28;20040;-82
2024/01/01 10:54:54;;;;;;;11.98;3.00;;;;;;;8.95;100.00;100326.78;5279342;28;20036;-82
2024/01/01 10:57:35;;;;;;;11.40;2.72;;;;;;;8.92;100.00;100327.03;5282073;28;20052;-82
2024/01/01 11:00:18;;;;;;;10.52;2.70;;;;;;;9.00;100.00;100322.81;5269607;28;20058;-82
2024/01/01 11:02:50;;;;;;;11.27;2.80;;;;;;;8.91;100.00;100313.16;5283411;28;20039;-82
2024/01/01 11:05:32;;;;;;;13.03;2.57;;;;;;;9.08;100.00;100339.59;5281362;28;20044;-82
2024/01/01 11:08:04;;;;;;;14.77;3.30;;;;;;;8.96;100.00;100329.25;5279384;28;20044;-82
2024/01/01 11:10:42;;;;;;;10.80;3.50;;;;;;;9.09;100.00;100336.03;5282753;28;20050;-82
2024/01/01 11:13:26;;;;;;;12.98;3.05;;;;;;;9.16;100.00;100345.00;5282439;28;20040;-82
2024/01/01 11:16:05;;;;;;;11.88;2.97;;;;;;;9.10;100.00;100341.13;5283656;28;20032;-82
2024/01/01 11:18:38;;;;;;;12.40;3.08;;;;;;;9.12;100.00;100333.97;5279412;28;20025;-82
2024/01/01 11:21:25;;;;;;;12.60;3.10;;;;;;;9.46;100.00;100341.47;5284958;28;20043;-82
2024/01/01 11:24:01;;;;;;;10.07;2.85;;;;;;;9.29;100.00;100337.75;5286838;28;20034;-81
2024/01/01 11:26:34;;;;;;;12.63;3.72;;;;;;;9.29;100.00;100340.38;5284189;28;20044;-82
2024/01/01 11:29:29;;;;;;;13.05;3.38;;;;;;;9.45;100.00;100335.44;5281159;28;20036;-82
2024/01/01 11:32:02;;;;;;;13.02;3.47;;;;;;;9.34;100.00;100353.84;5266533;28;20464;-83
2024/01/01 11:34:37;;;;;;;13.45;3.40;;;;;;;9.32;100.00;100350.56;5281975;28;20032;-83
2024/01/01 11:37:09;;;;;;;11.70;3.35;;;;;;;9.39;100.00;100348.22;5282515;28;20020;-83
2024/01/01 11:39:40;;;;;;;14.27;4.00;;;;;;;9.41;100.00;100360.19;5282923;28;20040;-83
2024/01/01 11:42:18;;;;;;;13.25;3.03;;;;;;;9.36;100.00;100349.31;5284438;28;20797;-83
2024/01/01 11:44:50;;;;;;;18.13;3.97;;;;;;;9.42;100.00;100351.38;5283061;28;20040;-82
2024/01/01 11:47:22;;;;;;;16.67;3.75;;;;;;;9.37;100.00;100358.00;5284578;28;20031;-83
2024/01/01 11:49:54;;;;;;;13.90;3.50;;;;;;;9.30;100.00;100362.91;5285031;28;20054;-83
2024/01/01 11:52:26;;;;;;;11.77;3.05;;;;;;;9.33;100.00;100373.13;5270819;28;20063;-82